createdAt,value
2023-04-14T00:01:43.834Z,5.40
2023-04-14T00:04:12.121Z,5.40
2023-04-14T00:06:40.585Z,5.40
2023-04-14T00:09:09.486Z,5.40
2023-04-14T00:11:37.729Z,5.30
2023-04-14T00:14:07.061Z,5.30
2023-04-14T00:16:36.870Z,5.30
2023-04-14T00:19:05.003Z,5.30
2023-04-14T00:21:33.157Z,5.20
2023-04-14T00:24:01.413Z,5.20
2023-04-14T00:26:29.688Z,5.20
2023-04-14T00:28:57.942Z,5.20
2023-04-14T00:31:26.311Z,5.10
2023-04-14T00:33:56.121Z,5.10
2023-04-14T00:36:24.589Z,5.10
2023-04-14T00:38:53.605Z,5.10
2023-04-14T00:41:21.766Z,5.00
2023-04-14T00:43:53.567Z,5.00
2023-04-14T00:46:22.096Z,5.00
2023-04-14T00:48:50.301Z,5.00
2023-04-14T00:51:20.106Z,4.90
2023-04-14T00:53:48.987Z,4.90
2023-04-14T00:56:17.268Z,4.90
2023-04-14T00:58:46.990Z,4.90
2023-04-14T01:01:15.367Z,4.80
2023-04-14T01:03:45.452Z,4.80
2023-04-14T01:06:13.844Z,4.80
2023-04-14T01:08:43.343Z,4.80
2023-04-14T01:11:18.277Z,4.80
2023-04-14T01:13:54.742Z,4.80
2023-04-14T01:16:30.363Z,4.70
2023-04-14T01:19:07.194Z,4.70
2023-04-14T01:21:39.631Z,4.70
2023-04-14T01:24:27.320Z,4.70
2023-04-14T01:27:06.553Z,4.70
2023-04-14T01:29:55.914Z,4.70
2023-04-14T01:32:28.674Z,4.60
2023-04-14T01:34:58.846Z,4.60
2023-04-14T01:37:31.584Z,4.60
2023-04-14T01:40:02.952Z,4.60
2023-04-14T01:42:36.993Z,4.60
2023-04-14T01:45:10.899Z,4.60
2023-04-14T01:47:44.237Z,4.50
2023-04-14T01:50:14.529Z,4.50
2023-04-14T01:52:47.640Z,4.50
2023-04-14T01:55:18.260Z,4.50
2023-04-14T01:57:52.038Z,4.50
2023-04-14T02:00:22.574Z,4.40
2023-04-14T02:02:53.491Z,4.40
2023-04-14T02:05:23.695Z,4.40
2023-04-14T02:07:54.003Z,4.40
2023-04-14T02:10:24.594Z,4.40
2023-04-14T02:12:55.549Z,4.30
2023-04-14T02:15:25.861Z,4.30
2023-04-14T02:17:58.117Z,4.30
2023-04-14T02:20:28.915Z,4.20
2023-04-14T02:22:57.210Z,4.20
2023-04-14T02:25:27.308Z,4.20
2023-04-14T02:27:58.733Z,4.20
2023-04-14T02:30:31.403Z,4.10
2023-04-14T02:33:05.570Z,4.00
2023-04-14T02:35:40.307Z,4.10
2023-04-14T02:38:14.290Z,4.10
2023-04-14T02:40:44.196Z,4.10
2023-04-14T02:43:34.239Z,4.00
2023-04-14T02:46:06.102Z,4.00
2023-04-14T02:48:36.913Z,4.00
2023-04-14T02:51:07.913Z,3.90
2023-04-14T02:53:36.362Z,3.90
2023-04-14T02:56:11.955Z,3.90
2023-04-14T02:58:43.765Z,3.90
2023-04-14T03:01:12.704Z,3.80
2023-04-14T03:03:42.994Z,3.80
2023-04-14T03:06:15.472Z,3.80
2023-04-14T03:08:45.211Z,3.70
2023-04-14T03:11:15.464Z,3.70
2023-04-14T03:13:46.991Z,3.70
2023-04-14T03:16:15.956Z,3.70
2023-04-14T03:18:46.375Z,3.60
2023-04-14T03:21:18.616Z,3.60
2023-04-14T03:23:48.858Z,3.60
2023-04-14T03:26:20.078Z,3.60
2023-04-14T03:28:50.724Z,3.60
2023-04-14T03:31:20.454Z,3.60
2023-04-14T03:33:58.045Z,3.50
2023-04-14T03:36:33.108Z,3.50
2023-04-14T03:39:05.950Z,3.50
2023-04-14T03:41:40.467Z,3.50
2023-04-14T03:44:15.797Z,3.50
2023-04-14T03:46:47.049Z,3.40
2023-04-14T03:49:20.142Z,3.40
2023-04-14T03:51:53.549Z,3.40
2023-04-14T03:54:24.106Z,3.40
2023-04-14T03:56:56.115Z,3.40
2023-04-14T03:59:28.549Z,3.40
2023-04-14T04:01:58.134Z,3.50
2023-04-14T04:04:28.685Z,3.50
2023-04-14T04:06:59.892Z,3.50
2023-04-14T04:09:29.852Z,3.50
2023-04-14T04:11:59.940Z,3.50
2023-04-14T04:14:31.192Z,3.50
2023-04-14T04:17:03.412Z,3.50
2023-04-14T04:19:35.374Z,3.50
2023-04-14T04:22:05.667Z,3.30
2023-04-14T04:24:41.375Z,3.40
2023-04-14T04:27:26.664Z,3.40
2023-04-14T04:29:57.579Z,3.40
2023-04-14T04:32:26.601Z,3.40
2023-04-14T04:34:57.680Z,3.40
2023-04-14T04:37:28.864Z,3.50
2023-04-14T04:39:58.891Z,3.30
2023-04-14T04:42:28.253Z,3.30
2023-04-14T04:44:57.193Z,3.30
2023-04-14T04:47:25.935Z,3.30
2023-04-14T04:49:54.048Z,3.20
2023-04-14T04:52:23.506Z,3.20
2023-04-14T04:54:52.734Z,3.30
2023-04-14T04:57:21.107Z,3.30
2023-04-14T04:59:49.316Z,3.20
2023-04-14T05:02:17.576Z,3.20
2023-04-14T05:04:46.316Z,3.20
2023-04-14T05:07:14.501Z,3.20
2023-04-14T05:09:44.171Z,3.20
2023-04-14T05:12:12.307Z,3.20
2023-04-14T05:14:40.377Z,3.20
2023-04-14T05:17:09.048Z,3.20
2023-04-14T05:19:37.578Z,3.20
2023-04-14T05:22:05.740Z,3.20
2023-04-14T05:24:33.813Z,3.20
2023-04-14T05:27:13.854Z,3.20
2023-04-14T05:29:42.697Z,3.20
2023-04-14T05:32:11.509Z,3.20
2023-04-14T05:34:39.636Z,3.20
2023-04-14T05:37:08.046Z,3.20
2023-04-14T05:39:36.466Z,3.20
2023-04-14T05:42:06.083Z,3.20
2023-04-14T05:44:34.335Z,3.20
2023-04-14T05:47:02.827Z,3.20
2023-04-14T05:49:31.186Z,3.30
2023-04-14T05:51:59.390Z,3.30
2023-04-14T05:57:49.244Z,3.30
2023-04-14T06:00:17.841Z,3.30
2023-04-14T06:02:57.228Z,3.40
2023-04-14T06:05:25.815Z,3.40
2023-04-14T06:07:54.345Z,3.60
2023-04-14T06:10:22.579Z,3.70
2023-04-14T06:12:52.101Z,3.90
2023-04-14T06:15:23.458Z,4.20
2023-04-14T06:17:51.790Z,4.50
2023-04-14T06:20:32.548Z,4.80
2023-04-14T06:23:21.602Z,5.10
2023-04-14T06:25:49.808Z,5.40
2023-04-14T06:28:19.992Z,5.60
2023-04-14T06:30:48.430Z,5.90
2023-04-14T06:33:16.471Z,6.20
2023-04-14T06:35:45.179Z,6.50
2023-04-14T06:38:13.358Z,6.70
2023-04-14T06:40:41.462Z,7.00
2023-04-14T06:43:14.282Z,7.30
2023-04-14T06:45:43.858Z,7.50
2023-04-14T06:48:13.361Z,7.80
2023-04-14T06:50:42.675Z,8.00
2023-04-14T06:53:12.383Z,8.30
2023-04-14T06:55:43.177Z,8.60
2023-04-14T06:58:11.252Z,8.70
2023-04-14T07:00:39.449Z,9.00
2023-04-14T07:03:09.346Z,9.20
2023-04-14T07:05:37.909Z,9.40
2023-04-14T07:08:06.300Z,9.60
2023-04-14T07:10:34.654Z,9.90
2023-04-14T07:13:02.735Z,10.10
2023-04-14T07:15:31.075Z,10.30
2023-04-14T07:18:00.138Z,10.50
2023-04-14T07:20:30.506Z,10.60
2023-04-14T07:22:58.631Z,10.90
2023-04-14T07:25:27.336Z,11.10
2023-04-14T07:28:03.287Z,11.30
2023-04-14T07:30:32.426Z,11.40
2023-04-14T07:33:02.183Z,11.60
2023-04-14T07:35:32.002Z,11.80
2023-04-14T07:38:00.149Z,12.00
2023-04-14T07:40:28.317Z,12.10
2023-04-14T07:42:57.839Z,12.30
2023-04-14T07:45:26.012Z,12.50
2023-04-14T07:47:56.417Z,12.60
2023-04-14T07:50:26.427Z,12.80
2023-04-14T07:52:59.299Z,12.90
2023-04-14T07:55:27.709Z,13.00
2023-04-14T07:57:55.822Z,13.10
2023-04-14T08:00:24.060Z,13.20
2023-04-14T08:02:52.231Z,13.40
2023-04-14T08:05:20.529Z,13.50
2023-04-14T08:07:49.575Z,13.60
2023-04-14T08:10:19.080Z,13.70
2023-04-14T08:12:47.255Z,13.80
2023-04-14T08:15:15.580Z,13.90
2023-04-14T08:17:43.758Z,14.00
2023-04-14T08:20:12.406Z,14.10
2023-04-14T08:22:40.547Z,14.20
2023-04-14T08:25:12.039Z,14.30
2023-04-14T08:27:41.724Z,14.40
2023-04-14T08:30:13.429Z,14.50
2023-04-14T08:32:41.818Z,14.60
2023-04-14T08:35:35.648Z,14.70
2023-04-14T08:38:01.087Z,14.70
2023-04-14T08:40:36.833Z,14.80
2023-04-14T08:43:06.789Z,14.90
2023-04-14T08:45:35.785Z,15.00
2023-04-14T08:48:05.154Z,15.10
2023-04-14T08:50:37.380Z,15.10
2023-04-14T08:53:11.503Z,15.20
2023-04-14T08:55:42.141Z,15.30
2023-04-14T08:58:12.431Z,15.40
2023-04-14T09:00:41.123Z,15.50
2023-04-14T09:03:10.064Z,15.50
2023-04-14T09:05:38.608Z,15.50
2023-04-14T09:08:06.893Z,15.60
2023-04-14T09:10:37.128Z,15.60
2023-04-14T09:13:06.542Z,15.60
2023-04-14T09:15:38.203Z,15.60
2023-04-14T09:18:06.745Z,15.70
2023-04-14T09:20:40.814Z,15.80
2023-04-14T09:23:10.672Z,15.90
2023-04-14T09:25:40.324Z,15.90
2023-04-14T09:28:09.149Z,15.90
2023-04-14T09:30:38.640Z,16.00
2023-04-14T09:33:07.508Z,16.00
2023-04-14T09:35:47.356Z,16.10
2023-04-14T09:38:15.980Z,16.10
2023-04-14T09:40:45.616Z,16.10
2023-04-14T09:43:26.977Z,16.10
2023-04-14T09:45:57.866Z,16.20
2023-04-14T09:48:26.059Z,16.10
2023-04-14T09:50:59.559Z,16.10
2023-04-14T09:53:28.972Z,16.10
2023-04-14T09:55:57.271Z,16.00
2023-04-14T09:58:28.307Z,15.90
2023-04-14T10:00:59.409Z,16.00
2023-04-14T10:03:39.209Z,16.00
2023-04-14T10:06:15.931Z,16.00
2023-04-14T10:08:46.357Z,16.00
2023-04-14T10:11:19.507Z,16.00
2023-04-14T10:13:48.695Z,16.00
2023-04-14T10:16:18.806Z,16.00
2023-04-14T10:18:47.587Z,16.00
2023-04-14T10:21:18.262Z,15.90
2023-04-14T10:23:47.257Z,15.80
2023-04-14T10:26:18.372Z,15.80
2023-04-14T10:28:48.945Z,15.70
2023-04-14T10:31:23.409Z,15.70
2023-04-14T10:33:52.472Z,15.80
2023-04-14T10:36:28.084Z,15.80
2023-04-14T10:39:03.781Z,15.80
2023-04-14T10:41:46.390Z,15.80
2023-04-14T10:44:28.596Z,15.90
2023-04-14T10:47:00.236Z,15.90
2023-04-14T10:49:32.807Z,15.90
2023-04-14T10:52:02.383Z,15.90
2023-04-14T10:54:53.746Z,15.90
2023-04-14T10:57:24.233Z,15.80
2023-04-14T10:59:56.970Z,15.70
2023-04-14T11:02:28.828Z,15.70
2023-04-14T11:05:05.454Z,15.60
2023-04-14T11:07:40.255Z,15.60
2023-04-14T11:10:29.374Z,15.60
2023-04-14T11:12:59.054Z,15.50
2023-04-14T11:15:45.485Z,15.50
2023-04-14T11:18:16.053Z,15.40
2023-04-14T11:20:44.967Z,15.30
2023-04-14T11:23:16.393Z,15.10
2023-04-14T11:25:45.482Z,15.00
2023-04-14T11:28:13.782Z,15.00
2023-04-14T11:30:44.097Z,14.90
2023-04-14T11:33:16.031Z,14.90
2023-04-14T11:35:44.284Z,14.90
2023-04-14T11:38:12.704Z,14.90
2023-04-14T11:40:40.871Z,14.90
2023-04-14T11:43:09.167Z,14.90
2023-04-14T11:45:42.779Z,14.80
2023-04-14T11:48:13.134Z,14.90
2023-04-14T11:50:44.103Z,15.00
2023-04-14T11:53:14.892Z,15.10
2023-04-14T11:55:44.748Z,15.20
2023-04-14T11:58:13.856Z,15.20
2023-04-14T12:00:42.893Z,15.20
2023-04-14T12:03:11.667Z,15.30
2023-04-14T12:05:40.132Z,15.40
2023-04-14T12:08:11.988Z,15.40
2023-04-14T12:10:41.812Z,15.50
2023-04-14T12:13:12.002Z,15.50
2023-04-14T12:15:42.198Z,15.40
2023-04-14T12:18:13.634Z,15.40
2023-04-14T12:20:44.021Z,15.30
2023-04-14T12:23:13.667Z,15.30
2023-04-14T12:25:41.962Z,15.20
2023-04-14T12:28:10.237Z,15.20
2023-04-14T12:30:39.041Z,15.20
2023-04-14T12:33:12.055Z,15.10
2023-04-14T12:35:41.047Z,15.10
2023-04-14T12:38:14.487Z,15.00
2023-04-14T12:40:43.798Z,15.00
2023-04-14T12:43:16.183Z,15.00
2023-04-14T12:45:45.938Z,15.00
2023-04-14T12:48:15.880Z,15.00
2023-04-14T12:50:44.560Z,15.00
2023-04-14T12:53:27.328Z,15.00
2023-04-14T12:56:09.613Z,15.00
2023-04-14T12:58:38.872Z,15.00
2023-04-14T13:01:07.974Z,15.10
2023-04-14T13:03:41.088Z,15.10
2023-04-14T13:06:09.622Z,15.10
2023-04-14T13:08:39.282Z,15.10
2023-04-14T13:11:07.359Z,15.10
2023-04-14T13:13:35.524Z,15.10
2023-04-14T13:16:20.506Z,15.10
2023-04-14T13:18:49.616Z,15.00
2023-04-14T13:21:17.794Z,15.00
2023-04-14T13:23:47.431Z,14.90
2023-04-14T13:26:15.563Z,14.80
2023-04-14T13:28:43.759Z,14.80
2023-04-14T13:31:13.373Z,14.80
2023-04-14T13:33:41.571Z,14.80
2023-04-14T13:36:09.677Z,14.80
2023-04-14T13:38:37.913Z,14.70
2023-04-14T13:41:07.404Z,14.70
2023-04-14T13:43:36.158Z,14.70
2023-04-14T13:46:04.523Z,14.70
2023-04-14T13:48:33.089Z,14.70
2023-04-14T13:51:02.195Z,14.70
2023-04-14T13:53:31.028Z,14.70
2023-04-14T13:55:59.098Z,14.70
2023-04-14T13:58:28.573Z,14.70
2023-04-14T14:00:56.731Z,14.70
2023-04-14T14:03:26.003Z,14.70
2023-04-14T14:05:55.081Z,14.80
2023-04-14T14:08:23.222Z,14.80
2023-04-14T14:10:51.286Z,14.80
2023-04-14T14:13:20.747Z,14.80
2023-04-14T14:15:50.424Z,14.80
2023-04-14T14:18:18.600Z,14.80
2023-04-14T14:20:47.119Z,14.80
2023-04-14T14:23:16.178Z,14.80
2023-04-14T14:25:44.694Z,14.80
2023-04-14T14:28:13.426Z,14.80
2023-04-14T14:30:41.544Z,14.80
2023-04-14T14:33:11.204Z,14.70
2023-04-14T14:35:39.414Z,14.70
2023-04-14T14:38:07.806Z,14.60
2023-04-14T14:40:36.021Z,14.60
2023-04-14T14:43:04.286Z,14.60
2023-04-14T14:45:32.962Z,14.50
2023-04-14T14:48:01.649Z,14.50
2023-04-14T14:50:31.366Z,14.50
2023-04-14T14:52:59.644Z,14.40
2023-04-14T14:55:27.879Z,14.40
2023-04-14T14:57:55.986Z,14.40
2023-04-14T15:00:24.117Z,14.40
2023-04-14T15:02:53.035Z,14.40
2023-04-14T15:05:21.391Z,14.40
2023-04-14T15:07:50.981Z,14.40
2023-04-14T15:10:19.267Z,14.40
2023-04-14T15:12:47.484Z,14.40
2023-04-14T15:15:19.007Z,14.40
2023-04-14T15:17:47.194Z,14.40
2023-04-14T15:20:15.474Z,14.30
2023-04-14T15:22:43.550Z,14.40
2023-04-14T15:25:13.163Z,14.30
2023-04-14T15:27:41.346Z,14.30
2023-04-14T15:30:13.524Z,14.30
2023-04-14T15:32:41.672Z,14.30
2023-04-14T15:35:10.892Z,14.30
2023-04-14T15:37:39.059Z,14.30
2023-04-14T15:40:09.768Z,14.30
2023-04-14T15:42:39.396Z,14.30
2023-04-14T15:45:08.646Z,14.30
2023-04-14T15:47:36.730Z,14.30
2023-04-14T15:50:08.745Z,14.30
2023-04-14T15:52:39.557Z,14.30
2023-04-14T15:55:09.034Z,14.30
2023-04-14T15:57:38.600Z,14.30
2023-04-14T16:00:08.580Z,14.40
2023-04-14T16:02:45.875Z,14.40
2023-04-14T16:05:14.509Z,14.50
2023-04-14T16:07:43.664Z,14.50
2023-04-14T16:10:12.315Z,14.50
2023-04-14T16:12:41.820Z,14.60
2023-04-14T16:15:11.523Z,14.60
2023-04-14T16:17:39.651Z,14.70
2023-04-14T16:20:10.413Z,14.70
2023-04-14T16:22:38.608Z,14.80
2023-04-14T16:25:07.848Z,14.80
2023-04-14T16:27:36.034Z,14.90
2023-04-14T16:30:06.233Z,14.90
2023-04-14T16:32:34.331Z,15.00
2023-04-14T16:35:02.677Z,15.00
2023-04-14T16:37:30.820Z,15.00
2023-04-14T16:39:59.007Z,14.90
2023-04-14T16:42:27.648Z,14.90
2023-04-14T16:44:56.853Z,14.90
2023-04-14T16:47:26.573Z,15.00
2023-04-14T16:49:55.017Z,15.10
2023-04-14T16:52:23.255Z,15.20
2023-04-14T16:54:51.527Z,15.30
2023-04-14T16:57:19.683Z,15.50
2023-04-14T16:59:48.676Z,15.70
2023-04-14T17:02:17.117Z,16.10
2023-04-14T17:04:46.873Z,16.40
2023-04-14T17:07:15.074Z,16.80
2023-04-14T17:09:43.246Z,17.40
2023-04-14T17:12:11.573Z,18.10
2023-04-14T17:14:39.735Z,18.70
2023-04-14T17:17:07.917Z,19.10
2023-04-14T17:19:36.413Z,19.60
2023-04-14T17:22:05.849Z,19.70
2023-04-14T17:24:34.003Z,19.20
2023-04-14T17:27:02.191Z,18.60
2023-04-14T17:29:30.465Z,18.00
2023-04-14T17:31:59.100Z,17.50
2023-04-14T17:34:27.908Z,17.20
2023-04-14T17:36:56.265Z,16.80
2023-04-14T17:39:27.122Z,16.50
2023-04-14T17:41:56.119Z,16.20
2023-04-14T17:44:29.274Z,15.90
2023-04-14T17:47:00.860Z,15.70
2023-04-14T17:49:29.424Z,15.50
2023-04-14T17:51:58.108Z,15.30
2023-04-14T17:54:27.644Z,15.10
2023-04-14T17:56:56.668Z,15.00
2023-04-14T17:59:24.950Z,14.90
2023-04-14T18:01:53.458Z,14.70
2023-04-14T18:04:21.781Z,14.60
2023-04-14T18:06:50.055Z,14.50
2023-04-14T18:09:18.181Z,14.40
2023-04-14T18:11:48.075Z,14.30
2023-04-14T18:14:16.679Z,14.30
2023-04-14T18:16:44.861Z,14.10
2023-04-14T18:19:13.635Z,14.00
2023-04-14T18:21:43.751Z,13.90
2023-04-14T18:26:44.693Z,13.70
2023-04-14T18:29:14.137Z,13.60
2023-04-14T18:31:42.736Z,13.50
2023-04-14T18:34:12.583Z,13.40
2023-04-14T18:36:40.730Z,13.30
2023-04-14T18:39:09.050Z,13.20
2023-04-14T18:41:37.214Z,13.10
2023-04-14T18:44:05.499Z,13.00
2023-04-14T18:46:35.783Z,12.90
2023-04-14T18:49:04.314Z,12.80
2023-04-14T18:51:32.722Z,12.70
2023-04-14T18:54:01.241Z,12.60
2023-04-14T18:56:29.559Z,12.50
2023-04-14T18:58:57.957Z,12.40
2023-04-14T19:01:26.084Z,12.40
2023-04-14T19:03:57.618Z,12.30
2023-04-14T19:06:26.310Z,12.30
2023-04-14T19:08:54.412Z,12.20
2023-04-14T19:11:22.532Z,12.20
2023-04-14T19:13:50.615Z,12.10
2023-04-14T19:16:18.837Z,12.10
2023-04-14T19:18:47.543Z,12.10
2023-04-14T19:21:17.294Z,12.00
2023-04-14T19:23:45.661Z,12.00
2023-04-14T19:26:13.812Z,11.90
2023-04-14T19:28:42.566Z,11.90
2023-04-14T19:31:12.495Z,11.80
2023-04-14T19:33:41.940Z,11.80
2023-04-14T19:36:14.139Z,11.70
2023-04-14T19:38:44.214Z,11.70
2023-04-14T19:41:12.503Z,11.70
2023-04-14T19:43:40.806Z,11.60
2023-04-14T19:46:10.284Z,11.60
2023-04-14T19:48:38.982Z,11.60
2023-04-14T19:51:07.207Z,11.50
2023-04-14T19:53:35.551Z,11.40
2023-04-14T19:56:05.644Z,11.40
2023-04-14T19:58:34.342Z,11.30
2023-04-14T20:01:02.495Z,11.30
2023-04-14T20:03:34.682Z,11.30
2023-04-14T20:06:03.228Z,11.30
2023-04-14T20:08:32.267Z,11.20
2023-04-14T20:11:00.444Z,11.20
2023-04-14T20:13:32.098Z,11.10
2023-04-14T20:16:01.479Z,11.10
2023-04-14T20:18:29.700Z,11.10
2023-04-14T20:20:58.927Z,11.00
2023-04-14T20:23:27.842Z,11.00
2023-04-14T20:25:56.730Z,11.00
2023-04-14T20:28:26.352Z,10.90
2023-04-14T20:30:59.270Z,10.90
2023-04-14T20:33:28.625Z,10.90
2023-04-14T20:35:57.919Z,10.80
2023-04-14T20:38:26.557Z,10.80
2023-04-14T20:40:54.784Z,10.80
2023-04-14T20:43:23.315Z,10.70
2023-04-14T20:45:59.087Z,10.70
2023-04-14T21:02:03.131Z,10.70
2023-04-14T21:04:32.262Z,10.40
2023-04-14T21:07:00.525Z,10.40
2023-04-14T21:09:30.153Z,10.40
2023-04-14T21:12:14.340Z,10.30
2023-04-14T21:15:40.729Z,10.30
2023-04-14T21:17:36.385Z,10.20
2023-04-14T21:20:30.913Z,10.20
2023-04-14T21:22:59.102Z,10.10
2023-04-14T21:25:27.169Z,10.10
2023-04-14T21:27:55.356Z,10.10
2023-04-14T21:30:23.643Z,10.00
2023-04-14T21:32:53.347Z,10.00
2023-04-14T21:35:21.502Z,10.00
2023-04-14T21:37:49.580Z,9.90
2023-04-14T21:40:17.701Z,9.90
2023-04-14T21:42:45.974Z,9.80
2023-04-14T21:45:14.202Z,9.80
2023-04-14T21:47:42.720Z,9.70
2023-04-14T21:50:12.668Z,9.70
2023-04-14T21:52:40.789Z,9.70
2023-04-14T21:55:09.783Z,9.70
2023-04-14T21:57:44.243Z,9.60
2023-04-14T22:00:18.452Z,9.60
2023-04-14T22:02:47.189Z,9.60
2023-04-14T22:05:17.154Z,9.50
2023-04-14T22:07:45.563Z,9.50
2023-04-14T22:10:14.621Z,9.50
2023-04-14T22:12:44.693Z,9.40
2023-04-14T22:15:14.368Z,9.40
2023-04-14T22:17:43.419Z,9.30
2023-04-14T22:20:12.469Z,9.20
2023-04-14T22:22:41.901Z,9.20
2023-04-14T22:25:11.539Z,9.10
2023-04-14T22:27:39.631Z,9.10
2023-04-14T22:30:09.896Z,9.00
2023-04-14T22:32:37.964Z,9.00
2023-04-14T22:35:06.688Z,8.90
2023-04-14T22:37:34.786Z,8.90
2023-04-14T22:40:04.528Z,8.80
2023-04-14T22:42:32.611Z,8.80
2023-04-14T22:45:01.256Z,8.70
2023-04-14T22:47:29.473Z,8.70
2023-04-14T22:49:57.559Z,8.60
2023-04-14T22:52:26.618Z,8.60
2023-04-14T22:54:55.080Z,8.60
2023-04-14T22:57:24.791Z,8.50
2023-04-14T22:59:52.991Z,8.50
2023-04-14T23:02:21.435Z,8.40
2023-04-14T23:04:49.767Z,8.40
2023-04-14T23:07:17.927Z,8.30
2023-04-14T23:09:46.012Z,8.30
2023-04-14T23:12:14.110Z,8.30
2023-04-14T23:14:43.646Z,8.20
2023-04-14T23:17:11.795Z,8.20
2023-04-14T23:19:39.861Z,8.20
2023-04-14T23:22:08.165Z,8.10
2023-04-14T23:24:36.297Z,8.10
2023-04-14T23:27:04.580Z,8.00
2023-04-14T23:29:32.700Z,8.00
2023-04-14T23:32:02.160Z,7.90
2023-04-14T23:34:30.279Z,7.90
2023-04-14T23:36:58.388Z,7.80
2023-04-14T23:39:26.500Z,7.80
2023-04-14T23:41:54.588Z,7.80
2023-04-14T23:44:22.617Z,7.80
2023-04-14T23:46:52.569Z,7.70
2023-04-14T23:49:24.240Z,7.70
2023-04-14T23:52:01.177Z,7.60
2023-04-14T23:54:30.789Z,7.60
2023-04-14T23:56:59.208Z,7.50
2023-04-14T23:59:27.337Z,7.50
